createdAt,value
2018-11-20T00:00:16.473Z,39.10
2018-11-20T00:03:16.766Z,39.60
2018-11-20T00:09:19.113Z,39.60
2018-11-20T00:12:10.299Z,39.50
2018-11-20T00:14:40.428Z,39.90
2018-11-20T00:24:38.603Z,39.90
2018-11-20T00:27:34.526Z,39.50
2018-11-20T00:30:02.073Z,39.60
2018-11-20T00:35:28.741Z,39.40
2018-11-20T00:37:58.927Z,39.30
2018-11-20T00:40:45.731Z,39.30
2018-11-20T00:46:27.435Z,39.40
2018-11-20T00:49:14.341Z,39.50
2018-11-20T00:52:01.832Z,40.80
2018-11-20T00:54:51.485Z,40.40
2018-11-20T00:57:47.934Z,40.60
2018-11-20T01:00:30.968Z,40.60
2018-11-20T01:03:22.466Z,40.60
2018-11-20T01:05:52.172Z,40.50
2018-11-20T01:10:47.569Z,40.70
2018-11-20T01:13:26.316Z,40.50
2018-11-20T01:15:56.369Z,40.80
2018-11-20T01:18:43.488Z,40.70
2018-11-20T01:21:31.657Z,40.60
2018-11-20T01:28:56.993Z,41.30
2018-11-20T01:36:24.420Z,41.00
2018-11-20T01:41:24.522Z,40.40
2018-11-20T01:46:25.491Z,40.00
2018-11-20T01:51:23.282Z,39.90
2018-11-20T01:53:52.860Z,39.60
2018-11-20T02:01:21.986Z,39.90
2018-11-20T02:06:24.833Z,40.50
2018-11-20T02:08:54.556Z,40.60
2018-11-20T02:14:29.872Z,41.30
2018-11-20T02:19:52.149Z,41.10
2018-11-20T02:29:49.364Z,41.10
2018-11-20T02:34:46.708Z,40.80
2018-11-20T02:39:43.856Z,40.30
2018-11-20T02:44:48.541Z,40.40
2018-11-20T02:49:45.693Z,41.00
2018-11-20T02:52:13.325Z,41.20
2018-11-20T02:57:08.813Z,41.20
2018-11-20T03:02:07.449Z,41.50
2018-11-20T03:07:04.135Z,41.10
2018-11-20T03:14:30.414Z,40.40
2018-11-20T03:19:30.373Z,40.30
2018-11-20T03:24:28.575Z,40.30
2018-11-20T03:29:28.578Z,40.50
2018-11-20T03:36:58.879Z,40.10
2018-11-20T03:40:01.930Z,40.60
2018-11-20T03:42:52.069Z,40.00
2018-11-20T03:45:48.238Z,39.90
2018-11-20T03:48:37.710Z,40.00
2018-11-20T03:51:38.038Z,40.30
2018-11-20T03:54:44.936Z,40.50
2018-11-20T03:57:31.961Z,40.90
2018-11-20T04:00:29.846Z,40.60
2018-11-20T04:03:17.271Z,41.30
2018-11-20T04:06:13.104Z,40.50
2018-11-20T04:09:07.027Z,40.40
2018-11-20T04:11:47.481Z,41.20
2018-11-20T04:14:43.753Z,40.40
2018-11-20T04:17:30.216Z,40.50
2018-11-20T04:20:10.475Z,40.50
2018-11-20T04:22:58.711Z,40.40
2018-11-20T04:25:49.806Z,40.60
2018-11-20T04:28:36.783Z,40.30
2018-11-20T04:31:53.739Z,39.90
2018-11-20T04:37:44.075Z,39.90
2018-11-20T04:40:32.332Z,40.00
2018-11-20T04:43:19.360Z,40.10
2018-11-20T04:46:17.015Z,40.20
2018-11-20T04:49:06.837Z,40.30
2018-11-20T04:51:53.685Z,40.50
2018-11-20T04:54:47.742Z,40.30
2018-11-20T04:57:34.902Z,40.20
2018-11-20T05:00:32.230Z,39.90
2018-11-20T05:03:29.466Z,39.70
2018-11-20T05:06:23.437Z,39.70
2018-11-20T05:09:26.444Z,39.50
2018-11-20T05:12:15.464Z,39.30
2018-11-20T05:15:16.218Z,39.50
2018-11-20T05:18:10.056Z,39.80
2018-11-20T05:20:56.713Z,39.70
2018-11-20T05:23:36.136Z,39.80
2018-11-20T05:26:33.481Z,39.60
2018-11-20T05:29:24.514Z,40.00
2018-11-20T05:32:02.157Z,39.10
2018-11-20T05:34:56.314Z,39.20
2018-11-20T05:37:46.163Z,39.10
2018-11-20T05:40:38.853Z,39.00
2018-11-20T05:43:33.393Z,39.60
2018-11-20T05:46:20.480Z,39.40
2018-11-20T05:49:07.289Z,39.50
2018-11-20T05:51:54.554Z,39.80
2018-11-20T05:54:54.549Z,39.80
2018-11-20T05:57:32.389Z,40.00
2018-11-20T06:00:29.734Z,40.30
2018-11-20T06:03:16.755Z,40.20
2018-11-20T06:06:16.810Z,40.20
2018-11-20T06:09:04.087Z,39.80
2018-11-20T06:11:51.060Z,39.70
2018-11-20T06:14:43.519Z,40.20
2018-11-20T06:17:30.090Z,40.10
2018-11-20T06:20:16.444Z,39.90
2018-11-20T06:23:11.868Z,40.20
2018-11-20T06:26:08.463Z,40.20
2018-11-20T06:28:49.476Z,40.20
2018-11-20T06:31:43.747Z,40.20
2018-11-20T06:34:42.782Z,40.10
2018-11-20T06:37:46.139Z,40.30
2018-11-20T06:40:46.488Z,39.90
2018-11-20T06:43:52.075Z,39.70
2018-11-20T06:46:46.260Z,39.50
2018-11-20T06:49:22.127Z,39.70
2018-11-20T06:52:07.242Z,39.60
2018-11-20T06:55:04.442Z,39.40
2018-11-20T06:57:51.214Z,39.20
2018-11-20T07:00:58.069Z,39.00
2018-11-20T07:03:38.802Z,39.10
2018-11-20T07:06:25.776Z,39.10
2018-11-20T07:09:16.877Z,39.20
2018-11-20T07:11:56.834Z,39.40
2018-11-20T07:14:58.065Z,39.40
2018-11-20T07:17:49.259Z,39.70
2018-11-20T07:20:49.401Z,38.50
2018-11-20T07:23:35.908Z,38.60
2018-11-20T07:26:32.583Z,38.60
2018-11-20T07:29:21.095Z,38.60
2018-11-20T07:32:20.856Z,38.80
2018-11-20T07:35:17.637Z,38.60
2018-11-20T07:38:06.270Z,39.00
2018-11-20T07:41:06.549Z,38.80
2018-11-20T07:43:53.448Z,38.50
2018-11-20T07:46:47.594Z,38.60
2018-11-20T07:49:43.497Z,38.90
2018-11-20T07:52:36.435Z,38.70
2018-11-20T07:55:43.551Z,38.40
2018-11-20T07:58:33.168Z,38.10
2018-11-20T08:01:12.233Z,38.00
2018-11-20T08:04:07.958Z,38.30
2018-11-20T08:07:07.932Z,39.00
2018-11-20T08:09:46.766Z,39.40
2018-11-20T08:12:23.144Z,40.30
2018-11-20T08:15:23.328Z,40.90
2018-11-20T08:18:13.733Z,40.80
2018-11-20T08:21:18.781Z,41.10
2018-11-20T08:23:56.336Z,41.60
2018-11-20T08:26:45.032Z,41.40
2018-11-20T08:29:48.181Z,41.60
2018-11-20T08:32:42.246Z,41.70
2018-11-20T08:35:25.544Z,42.00
2018-11-20T08:38:21.654Z,42.20
2018-11-20T08:41:09.871Z,42.00
2018-11-20T08:43:56.834Z,42.00
2018-11-20T08:46:44.701Z,41.90
2018-11-20T08:49:42.334Z,41.70
2018-11-20T08:52:29.155Z,42.50
2018-11-20T08:55:20.221Z,41.10
2018-11-20T08:58:17.457Z,41.50
2018-11-20T09:01:04.249Z,41.80
2018-11-20T09:03:51.340Z,41.80
2018-11-20T09:06:35.896Z,41.70
2018-11-20T09:09:31.884Z,42.10
2018-11-20T09:12:34.368Z,41.80
2018-11-20T09:15:21.306Z,41.90
2018-11-20T09:18:27.646Z,41.90
2018-11-20T09:21:23.084Z,41.90
2018-11-20T09:24:10.119Z,42.00
2018-11-20T09:27:01.090Z,42.50
2018-11-20T09:30:07.207Z,41.80
2018-11-20T09:32:54.359Z,42.00
2018-11-20T09:35:41.757Z,41.70
2018-11-20T09:38:36.183Z,41.60
2018-11-20T09:41:27.634Z,41.80
2018-11-20T09:44:40.814Z,41.30
2018-11-20T09:47:45.250Z,41.10
2018-11-20T09:50:37.849Z,41.50
2018-11-20T09:53:33.853Z,41.70
2018-11-20T09:56:31.215Z,41.80
2018-11-20T09:59:21.955Z,42.50
2018-11-20T10:02:07.313Z,42.60
2018-11-20T10:04:58.994Z,42.90
2018-11-20T10:07:54.810Z,42.70
2018-11-20T10:10:54.861Z,43.10
2018-11-20T10:13:53.919Z,42.80
2018-11-20T10:16:44.037Z,42.70
2018-11-20T10:19:37.062Z,43.20
2018-11-20T10:22:43.785Z,42.80
2018-11-20T10:25:36.684Z,43.00
2018-11-20T10:28:30.767Z,43.10
2018-11-20T10:31:31.114Z,43.60
2018-11-20T10:34:15.458Z,44.30
2018-11-20T10:37:01.977Z,44.60
2018-11-20T10:40:05.415Z,44.10
2018-11-20T10:42:56.626Z,44.10
2018-11-20T10:46:00.129Z,44.30
2018-11-20T10:51:36.841Z,44.00
2018-11-20T10:54:23.655Z,44.10
2018-11-20T10:57:13.518Z,44.40
2018-11-20T11:00:26.449Z,45.00
2018-11-20T11:03:13.450Z,45.60
2018-11-20T11:06:00.812Z,45.20
2018-11-20T11:08:56.897Z,44.80
2018-11-20T11:11:36.404Z,44.70
2018-11-20T11:14:23.436Z,45.00
2018-11-20T11:17:26.590Z,44.60
2018-11-20T11:20:13.178Z,44.40
2018-11-20T11:23:00.441Z,44.60
2018-11-20T11:25:46.799Z,44.60
2018-11-20T11:28:51.421Z,44.80
2018-11-20T11:31:36.741Z,45.10
2018-11-20T11:34:16.753Z,44.70
2018-11-20T11:37:04.423Z,44.90
2018-11-20T11:39:53.750Z,44.70
2018-11-20T11:42:53.029Z,44.80
2018-11-20T11:45:50.289Z,45.10
2018-11-20T11:48:53.494Z,44.80
2018-11-20T11:51:50.355Z,44.60
2018-11-20T11:54:41.250Z,45.10
2018-11-20T11:57:31.384Z,44.40
2018-11-20T12:00:23.626Z,44.20
2018-11-20T12:03:14.655Z,43.80
2018-11-20T12:05:44.800Z,43.80
2018-11-20T12:10:53.741Z,44.20
2018-11-20T12:13:53.875Z,44.10
2018-11-20T12:16:40.797Z,43.80
2018-11-20T12:19:37.091Z,43.70
2018-11-20T12:24:42.522Z,43.50
2018-11-20T12:31:11.679Z,43.70
2018-11-20T12:34:00.040Z,43.60
2018-11-20T12:36:44.001Z,43.80
2018-11-20T12:39:52.640Z,43.60
2018-11-20T12:42:52.116Z,43.20
2018-11-20T12:45:53.854Z,43.70
2018-11-20T12:49:03.984Z,43.40
2018-11-20T12:51:57.298Z,43.10
2018-11-20T12:54:43.270Z,43.00
2018-11-20T12:57:34.306Z,43.10
2018-11-20T13:00:30.244Z,43.30
2018-11-20T13:03:16.326Z,43.30
2018-11-20T13:06:02.254Z,43.10
2018-11-20T13:09:04.938Z,43.10
2018-11-20T13:11:48.508Z,43.60
2018-11-20T13:14:41.639Z,44.20
2018-11-20T13:17:27.640Z,43.20
2018-11-20T13:20:40.357Z,43.40
2018-11-20T13:23:37.950Z,43.20
2018-11-20T13:26:18.844Z,42.80
2018-11-20T13:29:05.319Z,42.60
2018-11-20T13:31:51.687Z,42.50
2018-11-20T13:34:33.205Z,42.60
2018-11-20T13:37:19.791Z,42.40
2018-11-20T13:40:16.005Z,42.30
2018-11-20T13:43:02.285Z,42.60
2018-11-20T13:45:48.805Z,42.30
2018-11-20T13:48:47.296Z,42.10
2018-11-20T13:51:41.635Z,42.00
2018-11-20T13:54:43.990Z,42.20
2018-11-20T13:57:30.084Z,42.50
2018-11-20T14:00:15.935Z,42.40
2018-11-20T14:03:15.313Z,41.90
2018-11-20T14:06:01.369Z,41.70
2018-11-20T14:09:00.783Z,42.50
2018-11-20T14:11:38.374Z,42.70
2018-11-20T14:14:24.721Z,42.40
2018-11-20T14:17:22.294Z,42.80
2018-11-20T14:23:21.534Z,42.40
2018-11-20T14:26:03.831Z,42.60
2018-11-20T14:28:59.356Z,42.20
2018-11-20T14:31:39.888Z,42.30
2018-11-20T14:34:39.564Z,42.20
2018-11-20T14:37:27.568Z,42.80
2018-11-20T14:40:22.974Z,42.30
2018-11-20T14:43:03.033Z,43.10
2018-11-20T14:45:53.275Z,43.30
2018-11-20T14:48:39.174Z,43.60
2018-11-20T14:51:16.272Z,43.00
2018-11-20T14:53:56.834Z,42.60
2018-11-20T14:56:43.188Z,42.10
2018-11-20T14:59:52.986Z,42.40
2018-11-20T15:02:39.389Z,42.50
2018-11-20T15:05:26.018Z,42.80
2018-11-20T15:08:47.126Z,42.50
2018-11-20T15:11:27.354Z,42.80
2018-11-20T15:14:21.856Z,42.80
2018-11-20T15:17:07.735Z,42.50
2018-11-20T15:20:16.638Z,42.80
2018-11-20T15:23:04.740Z,42.50
2018-11-20T15:25:41.297Z,42.60
2018-11-20T15:28:34.906Z,42.30
2018-11-20T15:31:22.433Z,42.60
2018-11-20T15:34:19.031Z,42.90
2018-11-20T15:37:15.122Z,43.30
2018-11-20T15:39:54.070Z,43.50
2018-11-20T15:42:56.844Z,43.50
2018-11-20T15:45:37.689Z,43.60
2018-11-20T15:48:24.704Z,43.40
2018-11-20T15:51:24.514Z,44.10
2018-11-20T15:54:14.887Z,44.10
2018-11-20T15:57:14.144Z,44.10
2018-11-20T16:00:09.487Z,43.80
2018-11-20T16:02:59.501Z,43.70
2018-11-20T16:05:47.269Z,43.70
2018-11-20T16:08:32.992Z,43.50
2018-11-20T16:11:35.250Z,43.60
2018-11-20T16:14:34.965Z,43.40
2018-11-20T16:17:21.267Z,43.20
2018-11-20T16:20:23.222Z,43.30
2018-11-20T16:23:10.629Z,44.10
2018-11-20T16:25:47.911Z,43.20
2018-11-20T16:28:35.301Z,43.30
2018-11-20T16:31:21.515Z,42.90
2018-11-20T16:34:08.950Z,42.70
2018-11-20T16:37:05.512Z,43.10
2018-11-20T16:40:01.090Z,43.00
2018-11-20T16:42:46.935Z,43.00
2018-11-20T16:45:34.773Z,42.80
2018-11-20T16:48:21.643Z,43.00
2018-11-20T16:54:12.672Z,43.10
2018-11-20T16:57:12.428Z,43.10
2018-11-20T17:00:15.064Z,43.10
2018-11-20T17:02:50.501Z,43.30
2018-11-20T17:05:36.854Z,43.20
2018-11-20T17:08:24.468Z,43.50
2018-11-20T17:11:26.941Z,43.80
2018-11-20T17:14:04.264Z,43.90
2018-11-20T17:16:57.557Z,43.70
2018-11-20T17:19:47.542Z,43.70
2018-11-20T17:22:33.965Z,43.90
2018-11-20T17:25:24.482Z,44.00
2018-11-20T17:28:26.932Z,43.90
2018-11-20T17:31:19.031Z,43.70
2018-11-20T17:34:05.294Z,43.60
2018-11-20T17:37:01.709Z,43.70
2018-11-20T17:39:55.499Z,44.20
2018-11-20T17:42:51.732Z,43.90
2018-11-20T17:45:39.164Z,44.20
2018-11-20T17:48:29.440Z,44.30
2018-11-20T17:51:25.041Z,44.30
2018-11-20T17:54:11.088Z,44.20
2018-11-20T17:57:01.147Z,44.00
2018-11-20T18:00:04.203Z,44.00
2018-11-20T18:02:52.584Z,44.10
2018-11-20T18:05:39.224Z,44.20
2018-11-20T18:08:33.788Z,44.10
2018-11-20T18:11:29.600Z,44.10
2018-11-20T18:14:15.570Z,44.50
2018-11-20T18:17:09.056Z,44.40
2018-11-20T18:20:04.219Z,44.60
2018-11-20T18:22:47.994Z,44.90
2018-11-20T18:25:41.396Z,45.10
2018-11-20T18:28:38.088Z,44.90
2018-11-20T18:31:25.160Z,44.80
2018-11-20T18:34:15.477Z,44.80
2018-11-20T18:37:01.961Z,44.70
2018-11-20T18:42:56.380Z,44.70
2018-11-20T18:45:42.342Z,45.30
2018-11-20T18:48:28.732Z,45.40
2018-11-20T18:54:13.566Z,45.70
2018-11-20T18:57:01.915Z,45.70
2018-11-20T19:02:50.521Z,45.70
2018-11-20T19:05:49.864Z,45.90
2018-11-20T19:08:33.338Z,45.10
2018-11-20T19:11:39.260Z,45.40
2018-11-20T19:14:25.617Z,45.50
2018-11-20T19:17:13.092Z,45.60
2018-11-20T19:22:44.109Z,45.90
2018-11-20T19:25:31.551Z,45.50
2018-11-20T19:28:19.287Z,45.80
2018-11-20T19:31:25.776Z,45.70
2018-11-20T19:34:08.081Z,45.70
2018-11-20T19:37:04.924Z,45.40
2018-11-20T19:39:49.879Z,45.20
2018-11-20T19:42:34.842Z,45.00
2018-11-20T19:45:37.118Z,44.90
2018-11-20T19:48:31.307Z,45.10
2018-11-20T19:51:26.754Z,45.20
2018-11-20T19:54:14.799Z,45.30
2018-11-20T19:56:59.064Z,45.00
2018-11-20T19:59:51.534Z,45.00
2018-11-20T20:02:48.188Z,45.00
2018-11-20T20:05:38.936Z,45.10
2018-11-20T20:08:25.231Z,45.10
2018-11-20T20:11:20.684Z,45.30
2018-11-20T20:14:06.962Z,45.20
2018-11-20T20:16:52.544Z,45.30
2018-11-20T20:19:38.749Z,45.20
2018-11-20T20:22:36.867Z,45.20
2018-11-20T20:25:23.431Z,45.00
2018-11-20T20:28:22.852Z,45.10
2018-11-20T20:31:19.476Z,45.00
2018-11-20T20:34:09.765Z,45.20
2018-11-20T20:37:06.851Z,44.90
2018-11-20T20:39:54.816Z,44.90
2018-11-20T20:45:38.914Z,44.80
2018-11-20T20:48:27.702Z,45.00
2018-11-20T20:51:15.237Z,45.20
2018-11-20T20:54:01.271Z,45.50
2018-11-20T20:56:51.143Z,45.40
2018-11-20T20:59:39.154Z,45.40
2018-11-20T21:02:47.233Z,45.20
2018-11-20T21:05:29.346Z,45.10
2018-11-20T21:08:16.626Z,45.00
2018-11-20T21:11:03.263Z,44.90
2018-11-20T21:13:56.826Z,44.80
2018-11-20T21:16:44.278Z,44.70
2018-11-20T21:19:45.129Z,44.70
2018-11-20T21:22:47.719Z,44.80
2018-11-20T21:25:41.548Z,44.80
2018-11-20T21:28:41.045Z,44.50
2018-11-20T21:31:53.301Z,44.40
2018-11-20T21:34:40.747Z,44.60
2018-11-20T21:37:19.487Z,44.80
2018-11-20T21:40:05.452Z,44.90
2018-11-20T21:43:08.104Z,44.90
2018-11-20T21:46:10.741Z,44.90
2018-11-20T21:48:56.805Z,44.80
2018-11-20T21:51:52.969Z,44.80
2018-11-20T21:54:31.490Z,44.70
2018-11-20T21:57:17.990Z,44.60
2018-11-20T22:00:02.536Z,44.60
2018-11-20T22:03:01.678Z,44.70
2018-11-20T22:05:50.206Z,45.00
2018-11-20T22:08:53.025Z,44.90
2018-11-20T22:11:50.860Z,45.00
2018-11-20T22:14:44.257Z,44.90
2018-11-20T22:17:37.826Z,44.90
2018-11-20T22:20:31.855Z,44.90
2018-11-20T22:23:27.737Z,44.90
2018-11-20T22:26:15.994Z,44.90
2018-11-20T22:29:02.182Z,45.30
2018-11-20T22:32:08.170Z,45.50
2018-11-20T22:34:59.673Z,45.60
2018-11-20T22:37:46.153Z,45.10
2018-11-20T22:40:32.292Z,45.50
2018-11-20T22:43:38.036Z,45.30
2018-11-20T22:46:23.912Z,45.60
2018-11-20T22:49:29.747Z,45.80
2018-11-20T22:52:35.420Z,45.70
2018-11-20T22:55:25.432Z,45.80
2018-11-20T22:58:11.522Z,46.10
2018-11-20T23:03:55.032Z,45.60
2018-11-20T23:06:47.288Z,46.00
2018-11-20T23:09:15.783Z,45.80
2018-11-20T23:11:55.619Z,45.80
2018-11-20T23:14:24.047Z,45.50
2018-11-20T23:16:52.485Z,45.30
2018-11-20T23:19:20.781Z,45.10
2018-11-20T23:21:58.476Z,44.90
2018-11-20T23:24:26.756Z,44.90
2018-11-20T23:26:55.407Z,45.10
2018-11-20T23:29:23.850Z,45.00
2018-11-20T23:32:01.421Z,45.00
2018-11-20T23:34:32.275Z,45.50
2018-11-20T23:37:02.584Z,45.70
2018-11-20T23:39:31.286Z,46.00
2018-11-20T23:42:08.826Z,45.30
2018-11-20T23:44:37.368Z,45.60
2018-11-20T23:47:06.016Z,45.70
2018-11-20T23:49:34.432Z,45.60
2018-11-20T23:52:12.206Z,45.30
2018-11-20T23:54:40.501Z,45.10
2018-11-20T23:57:11.952Z,45.20
2018-11-20T23:59:40.521Z,45.40
